sensor_id;sensor_type;location;lat;lon;timestamp;P1;durP1;ratioP1;P2;durP2;ratioP2
66669;SDS011;53568;52.164;4.472;2023-04-25T00:00:25;6.86;;;5.56;;
66669;SDS011;53568;52.164;4.472;2023-04-25T00:02:51;6.40;;;5.19;;
66669;SDS011;53568;52.164;4.472;2023-04-25T00:05:16;7.08;;;5.55;;
66669;SDS011;53568;52.164;4.472;2023-04-25T00:07:42;7.39;;;5.72;;
66669;SDS011;53568;52.164;4.472;2023-04-25T00:10:08;7.06;;;5.45;;
66669;SDS011;53568;52.164;4.472;2023-04-25T00:12:34;6.88;;;5.26;;
66669;SDS011;53568;52.164;4.472;2023-04-25T00:15:01;6.60;;;5.04;;
66669;SDS011;53568;52.164;4.472;2023-04-25T00:17:26;7.43;;;5.58;;
66669;SDS011;53568;52.164;4.472;2023-04-25T00:19:53;7.31;;;5.48;;
66669;SDS011;53568;52.164;4.472;2023-04-25T00:22:18;6.71;;;5.14;;
66669;SDS011;53568;52.164;4.472;2023-04-25T00:24:44;6.64;;;5.13;;
66669;SDS011;53568;52.164;4.472;2023-04-25T00:27:10;6.25;;;4.82;;
66669;SDS011;53568;52.164;4.472;2023-04-25T00:29:36;6.39;;;4.93;;
66669;SDS011;53568;52.164;4.472;2023-04-25T00:32:01;6.14;;;4.80;;
66669;SDS011;53568;52.164;4.472;2023-04-25T00:34:27;5.98;;;4.66;;
66669;SDS011;53568;52.164;4.472;2023-04-25T00:36:52;6.07;;;4.77;;
66669;SDS011;53568;52.164;4.472;2023-04-25T00:39:18;6.14;;;4.79;;
66669;SDS011;53568;52.164;4.472;2023-04-25T00:41:44;5.91;;;4.74;;
66669;SDS011;53568;52.164;4.472;2023-04-25T00:44:10;5.97;;;4.82;;
66669;SDS011;53568;52.164;4.472;2023-04-25T00:46:38;6.43;;;5.10;;
66669;SDS011;53568;52.164;4.472;2023-04-25T00:49:04;5.90;;;4.71;;
66669;SDS011;53568;52.164;4.472;2023-04-25T00:51:30;6.74;;;5.36;;
66669;SDS011;53568;52.164;4.472;2023-04-25T00:53:57;6.02;;;4.78;;
66669;SDS011;53568;52.164;4.472;2023-04-25T00:56:24;5.53;;;4.43;;
66669;SDS011;53568;52.164;4.472;2023-04-25T00:58:52;5.97;;;4.77;;
66669;SDS011;53568;52.164;4.472;2023-04-25T01:01:21;5.98;;;4.68;;
66669;SDS011;53568;52.164;4.472;2023-04-25T01:03:47;5.80;;;4.52;;
66669;SDS011;53568;52.164;4.472;2023-04-25T01:06:16;5.66;;;4.43;;
66669;SDS011;53568;52.164;4.472;2023-04-25T01:08:42;5.25;;;4.18;;
66669;SDS011;53568;52.164;4.472;2023-04-25T01:11:07;5.38;;;4.15;;
66669;SDS011;53568;52.164;4.472;2023-04-25T01:13:34;5.99;;;4.55;;
66669;SDS011;53568;52.164;4.472;2023-04-25T01:16:00;6.15;;;4.69;;
66669;SDS011;53568;52.164;4.472;2023-04-25T01:18:27;6.02;;;4.70;;
66669;SDS011;53568;52.164;4.472;2023-04-25T01:20:52;5.96;;;4.64;;
66669;SDS011;53568;52.164;4.472;2023-04-25T01:23:19;5.49;;;4.28;;
66669;SDS011;53568;52.164;4.472;2023-04-25T01:25:46;5.63;;;4.38;;
66669;SDS011;53568;52.164;4.472;2023-04-25T01:28:13;5.51;;;4.25;;
66669;SDS011;53568;52.164;4.472;2023-04-25T01:30:39;5.83;;;4.42;;
66669;SDS011;53568;52.164;4.472;2023-04-25T01:33:06;6.33;;;4.69;;
66669;SDS011;53568;52.164;4.472;2023-04-25T01:35:33;6.00;;;4.46;;
66669;SDS011;53568;52.164;4.472;2023-04-25T01:37:58;6.11;;;4.47;;
66669;SDS011;53568;52.164;4.472;2023-04-25T01:40:25;6.23;;;4.58;;
66669;SDS011;53568;52.164;4.472;2023-04-25T01:42:52;6.11;;;4.44;;
66669;SDS011;53568;52.164;4.472;2023-04-25T01:45:19;6.43;;;4.63;;
66669;SDS011;53568;52.164;4.472;2023-04-25T01:47:45;6.16;;;4.48;;
66669;SDS011;53568;52.164;4.472;2023-04-25T01:50:14;6.06;;;4.37;;
66669;SDS011;53568;52.164;4.472;2023-04-25T01:52:41;6.21;;;4.53;;
66669;SDS011;53568;52.164;4.472;2023-04-25T01:55:06;6.56;;;4.70;;
66669;SDS011;53568;52.164;4.472;2023-04-25T01:57:32;6.38;;;4.63;;
66669;SDS011;53568;52.164;4.472;2023-04-25T01:59:59;6.75;;;4.78;;
66669;SDS011;53568;52.164;4.472;2023-04-25T02:02:26;6.15;;;4.46;;
66669;SDS011;53568;52.164;4.472;2023-04-25T02:04:52;5.60;;;4.12;;
66669;SDS011;53568;52.164;4.472;2023-04-25T02:07:19;5.95;;;4.36;;
66669;SDS011;53568;52.164;4.472;2023-04-25T02:09:44;5.55;;;4.02;;
66669;SDS011;53568;52.164;4.472;2023-04-25T02:12:10;5.82;;;4.10;;
66669;SDS011;53568;52.164;4.472;2023-04-25T02:14:36;5.78;;;4.09;;
66669;SDS011;53568;52.164;4.472;2023-04-25T02:17:02;5.75;;;4.00;;
66669;SDS011;53568;52.164;4.472;2023-04-25T02:19:27;4.71;;;3.25;;
66669;SDS011;53568;52.164;4.472;2023-04-25T02:21:53;5.01;;;3.51;;
66669;SDS011;53568;52.164;4.472;2023-04-25T02:24:19;4.91;;;3.48;;
66669;SDS011;53568;52.164;4.472;2023-04-25T02:26:45;4.65;;;3.31;;
66669;SDS011;53568;52.164;4.472;2023-04-25T02:29:11;4.86;;;3.44;;
66669;SDS011;53568;52.164;4.472;2023-04-25T02:31:37;4.62;;;3.31;;
66669;SDS011;53568;52.164;4.472;2023-04-25T02:34:03;5.02;;;3.54;;
66669;SDS011;53568;52.164;4.472;2023-04-25T02:36:29;4.97;;;3.59;;
66669;SDS011;53568;52.164;4.472;2023-04-25T02:38:57;5.39;;;3.90;;
66669;SDS011;53568;52.164;4.472;2023-04-25T02:41:22;5.13;;;3.62;;
66669;SDS011;53568;52.164;4.472;2023-04-25T02:43:48;5.57;;;3.96;;
66669;SDS011;53568;52.164;4.472;2023-04-25T02:46:13;5.20;;;3.69;;
66669;SDS011;53568;52.164;4.472;2023-04-25T02:48:39;5.33;;;3.81;;
66669;SDS011;53568;52.164;4.472;2023-04-25T02:51:05;6.13;;;4.26;;
66669;SDS011;53568;52.164;4.472;2023-04-25T02:53:30;6.15;;;4.27;;
66669;SDS011;53568;52.164;4.472;2023-04-25T02:55:56;5.94;;;4.16;;
66669;SDS011;53568;52.164;4.472;2023-04-25T02:58:23;6.55;;;4.56;;
66669;SDS011;53568;52.164;4.472;2023-04-25T03:00:49;7.42;;;5.05;;
66669;SDS011;53568;52.164;4.472;2023-04-25T03:03:14;7.08;;;4.82;;
66669;SDS011;53568;52.164;4.472;2023-04-25T03:05:42;7.29;;;5.07;;
66669;SDS011;53568;52.164;4.472;2023-04-25T03:08:08;6.74;;;4.73;;
66669;SDS011;53568;52.164;4.472;2023-04-25T03:10:34;6.96;;;4.85;;
66669;SDS011;53568;52.164;4.472;2023-04-25T03:12:59;6.82;;;4.77;;
66669;SDS011;53568;52.164;4.472;2023-04-25T03:15:25;6.53;;;4.66;;
66669;SDS011;53568;52.164;4.472;2023-04-25T03:17:50;6.76;;;4.79;;
66669;SDS011;53568;52.164;4.472;2023-04-25T03:20:16;7.45;;;5.05;;
66669;SDS011;53568;52.164;4.472;2023-04-25T03:22:41;7.18;;;4.82;;
66669;SDS011;53568;52.164;4.472;2023-04-25T03:25:07;7.31;;;4.93;;
66669;SDS011;53568;52.164;4.472;2023-04-25T03:27:33;6.33;;;4.32;;
66669;SDS011;53568;52.164;4.472;2023-04-25T03:29:58;6.50;;;4.46;;
66669;SDS011;53568;52.164;4.472;2023-04-25T03:32:24;5.87;;;4.21;;
66669;SDS011;53568;52.164;4.472;2023-04-25T03:34:50;5.33;;;3.90;;
66669;SDS011;53568;52.164;4.472;2023-04-25T03:37:15;5.03;;;3.67;;
66669;SDS011;53568;52.164;4.472;2023-04-25T03:39:41;4.99;;;3.62;;
66669;SDS011;53568;52.164;4.472;2023-04-25T03:42:06;5.42;;;3.89;;
66669;SDS011;53568;52.164;4.472;2023-04-25T03:44:32;5.49;;;3.94;;
66669;SDS011;53568;52.164;4.472;2023-04-25T03:46:57;5.44;;;3.85;;
66669;SDS011;53568;52.164;4.472;2023-04-25T03:49:24;5.05;;;3.60;;
66669;SDS011;53568;52.164;4.472;2023-04-25T03:51:50;5.72;;;4.03;;
66669;SDS011;53568;52.164;4.472;2023-04-25T03:54:15;5.31;;;3.73;;
66669;SDS011;53568;52.164;4.472;2023-04-25T03:56:41;5.89;;;4.14;;
66669;SDS011;53568;52.164;4.472;2023-04-25T03:59:06;5.57;;;3.95;;
66669;SDS011;53568;52.164;4.472;2023-04-25T04:01:32;5.50;;;3.99;;
66669;SDS011;53568;52.164;4.472;2023-04-25T04:03:58;5.84;;;4.17;;
66669;SDS011;53568;52.164;4.472;2023-04-25T04:06:23;5.96;;;4.25;;
66669;SDS011;53568;52.164;4.472;2023-04-25T04:08:49;6.24;;;4.42;;
66669;SDS011;53568;52.164;4.472;2023-04-25T04:11:15;5.82;;;4.19;;
66669;SDS011;53568;52.164;4.472;2023-04-25T04:13:40;6.34;;;4.52;;
66669;SDS011;53568;52.164;4.472;2023-04-25T04:16:06;6.33;;;4.50;;
66669;SDS011;53568;52.164;4.472;2023-04-25T04:18:31;5.91;;;4.21;;
66669;SDS011;53568;52.164;4.472;2023-04-25T04:20:58;5.07;;;3.71;;
66669;SDS011;53568;52.164;4.472;2023-04-25T04:23:24;5.53;;;4.02;;
66669;SDS011;53568;52.164;4.472;2023-04-25T04:25:52;5.80;;;4.15;;
66669;SDS011;53568;52.164;4.472;2023-04-25T04:28:19;5.07;;;3.73;;
66669;SDS011;53568;52.164;4.472;2023-04-25T04:30:45;4.98;;;3.72;;
66669;SDS011;53568;52.164;4.472;2023-04-25T04:33:11;4.69;;;3.52;;
66669;SDS011;53568;52.164;4.472;2023-04-25T04:35:37;4.90;;;3.66;;
66669;SDS011;53568;52.164;4.472;2023-04-25T04:38:02;4.88;;;3.70;;
66669;SDS011;53568;52.164;4.472;2023-04-25T04:40:28;5.04;;;3.75;;
66669;SDS011;53568;52.164;4.472;2023-04-25T04:42:56;4.76;;;3.57;;
66669;SDS011;53568;52.164;4.472;2023-04-25T04:45:22;5.06;;;3.77;;
66669;SDS011;53568;52.164;4.472;2023-04-25T04:47:48;5.53;;;3.95;;
66669;SDS011;53568;52.164;4.472;2023-04-25T04:50:15;5.19;;;3.76;;
66669;SDS011;53568;52.164;4.472;2023-04-25T04:52:41;4.99;;;3.68;;
66669;SDS011;53568;52.164;4.472;2023-04-25T04:55:07;5.14;;;3.76;;
66669;SDS011;53568;52.164;4.472;2023-04-25T04:57:34;5.27;;;3.79;;
66669;SDS011;53568;52.164;4.472;2023-04-25T05:00:00;5.17;;;3.72;;
66669;SDS011;53568;52.164;4.472;2023-04-25T05:02:26;4.52;;;3.29;;
66669;SDS011;53568;52.164;4.472;2023-04-25T05:04:52;4.96;;;3.51;;
66669;SDS011;53568;52.164;4.472;2023-04-25T05:07:18;4.44;;;3.09;;
66669;SDS011;53568;52.164;4.472;2023-04-25T05:09:44;3.99;;;2.89;;
66669;SDS011;53568;52.164;4.472;2023-04-25T05:12:10;3.97;;;2.93;;
66669;SDS011;53568;52.164;4.472;2023-04-25T05:14:35;3.70;;;2.75;;
66669;SDS011;53568;52.164;4.472;2023-04-25T05:17:01;3.40;;;2.55;;
66669;SDS011;53568;52.164;4.472;2023-04-25T05:19:30;3.60;;;2.70;;
66669;SDS011;53568;52.164;4.472;2023-04-25T05:21:55;3.73;;;2.81;;
66669;SDS011;53568;52.164;4.472;2023-04-25T05:24:21;2.88;;;2.23;;
66669;SDS011;53568;52.164;4.472;2023-04-25T05:26:46;2.73;;;2.16;;
66669;SDS011;53568;52.164;4.472;2023-04-25T05:29:12;2.58;;;2.06;;
66669;SDS011;53568;52.164;4.472;2023-04-25T05:31:37;2.55;;;2.04;;
66669;SDS011;53568;52.164;4.472;2023-04-25T05:34:03;2.62;;;2.12;;
66669;SDS011;53568;52.164;4.472;2023-04-25T05:36:28;2.29;;;1.92;;
66669;SDS011;53568;52.164;4.472;2023-04-25T05:38:54;2.63;;;2.22;;
66669;SDS011;53568;52.164;4.472;2023-04-25T05:41:19;2.54;;;2.10;;
66669;SDS011;53568;52.164;4.472;2023-04-25T05:43:45;2.44;;;2.00;;
66669;SDS011;53568;52.164;4.472;2023-04-25T05:46:13;2.89;;;2.34;;
66669;SDS011;53568;52.164;4.472;2023-04-25T05:48:39;2.64;;;2.10;;
66669;SDS011;53568;52.164;4.472;2023-04-25T05:51:04;3.11;;;2.44;;
66669;SDS011;53568;52.164;4.472;2023-04-25T05:53:30;2.93;;;2.28;;
66669;SDS011;53568;52.164;4.472;2023-04-25T05:55:56;3.33;;;2.56;;
66669;SDS011;53568;52.164;4.472;2023-04-25T05:58:22;3.05;;;2.32;;
66669;SDS011;53568;52.164;4.472;2023-04-25T06:00:47;3.54;;;2.68;;
66669;SDS011;53568;52.164;4.472;2023-04-25T06:03:13;3.17;;;2.40;;
66669;SDS011;53568;52.164;4.472;2023-04-25T06:05:42;3.03;;;2.39;;
66669;SDS011;53568;52.164;4.472;2023-04-25T06:08:08;3.23;;;2.63;;
66669;SDS011;53568;52.164;4.472;2023-04-25T06:10:35;3.05;;;2.43;;
66669;SDS011;53568;52.164;4.472;2023-04-25T06:13:01;3.67;;;2.89;;
66669;SDS011;53568;52.164;4.472;2023-04-25T06:15:26;3.43;;;2.73;;
66669;SDS011;53568;52.164;4.472;2023-04-25T06:17:52;3.27;;;2.63;;
66669;SDS011;53568;52.164;4.472;2023-04-25T06:20:17;3.92;;;3.12;;
66669;SDS011;53568;52.164;4.472;2023-04-25T06:22:43;3.94;;;3.06;;
66669;SDS011;53568;52.164;4.472;2023-04-25T06:25:08;4.13;;;3.19;;
66669;SDS011;53568;52.164;4.472;2023-04-25T06:27:34;4.19;;;3.20;;
66669;SDS011;53568;52.164;4.472;2023-04-25T06:29:59;4.33;;;3.27;;
66669;SDS011;53568;52.164;4.472;2023-04-25T06:32:25;4.75;;;3.51;;
66669;SDS011;53568;52.164;4.472;2023-04-25T06:34:52;4.23;;;3.15;;
66669;SDS011;53568;52.164;4.472;2023-04-25T06:37:18;4.01;;;2.90;;
66669;SDS011;53568;52.164;4.472;2023-04-25T06:39:44;4.05;;;2.82;;
66669;SDS011;53568;52.164;4.472;2023-04-25T06:42:09;4.69;;;3.24;;
66669;SDS011;53568;52.164;4.472;2023-04-25T06:44:35;4.44;;;3.05;;
66669;SDS011;53568;52.164;4.472;2023-04-25T06:47:00;3.83;;;2.66;;
66669;SDS011;53568;52.164;4.472;2023-04-25T06:49:26;4.34;;;2.99;;
66669;SDS011;53568;52.164;4.472;2023-04-25T06:51:51;4.31;;;2.96;;
66669;SDS011;53568;52.164;4.472;2023-04-25T06:54:17;4.62;;;3.12;;
66669;SDS011;53568;52.164;4.472;2023-04-25T06:56:43;4.76;;;3.22;;
66669;SDS011;53568;52.164;4.472;2023-04-25T06:59:08;4.44;;;3.07;;
66669;SDS011;53568;52.164;4.472;2023-04-25T07:01:34;4.23;;;2.89;;
66669;SDS011;53568;52.164;4.472;2023-04-25T07:04:00;3.99;;;2.76;;
66669;SDS011;53568;52.164;4.472;2023-04-25T07:06:26;3.98;;;2.73;;
66669;SDS011;53568;52.164;4.472;2023-04-25T07:08:53;4.14;;;2.83;;
66669;SDS011;53568;52.164;4.472;2023-04-25T07:11:19;3.82;;;2.60;;
66669;SDS011;53568;52.164;4.472;2023-04-25T07:13:44;3.05;;;2.09;;
66669;SDS011;53568;52.164;4.472;2023-04-25T07:16:10;3.46;;;2.35;;
66669;SDS011;53568;52.164;4.472;2023-04-25T07:18:36;3.92;;;2.68;;
66669;SDS011;53568;52.164;4.472;2023-04-25T07:21:01;3.73;;;2.53;;
66669;SDS011;53568;52.164;4.472;2023-04-25T07:23:27;4.10;;;2.78;;
66669;SDS011;53568;52.164;4.472;2023-04-25T07:25:52;3.79;;;2.54;;
66669;SDS011;53568;52.164;4.472;2023-04-25T07:28:18;4.16;;;2.82;;
66669;SDS011;53568;52.164;4.472;2023-04-25T07:30:43;4.35;;;2.90;;
66669;SDS011;53568;52.164;4.472;2023-04-25T07:33:09;4.35;;;2.92;;
66669;SDS011;53568;52.164;4.472;2023-04-25T07:35:34;4.23;;;2.83;;
66669;SDS011;53568;52.164;4.472;2023-04-25T07:38:01;4.50;;;3.02;;
66669;SDS011;53568;52.164;4.472;2023-04-25T07:40:27;4.22;;;2.85;;
66669;SDS011;53568;52.164;4.472;2023-04-25T07:42:52;4.17;;;2.84;;
66669;SDS011;53568;52.164;4.472;2023-04-25T07:45:18;4.52;;;3.05;;
66669;SDS011;53568;52.164;4.472;2023-04-25T07:47:43;4.55;;;3.04;;
66669;SDS011;53568;52.164;4.472;2023-04-25T07:50:09;4.89;;;3.22;;
66669;SDS011;53568;52.164;4.472;2023-04-25T07:52:36;4.40;;;2.90;;
66669;SDS011;53568;52.164;4.472;2023-04-25T07:55:01;4.75;;;3.12;;
66669;SDS011;53568;52.164;4.472;2023-04-25T07:57:27;4.44;;;2.96;;
66669;SDS011;53568;52.164;4.472;2023-04-25T07:59:52;4.15;;;2.77;;
66669;SDS011;53568;52.164;4.472;2023-04-25T08:02:18;4.16;;;2.80;;
66669;SDS011;53568;52.164;4.472;2023-04-25T08:04:43;4.36;;;2.94;;
66669;SDS011;53568;52.164;4.472;2023-04-25T08:07:09;4.42;;;2.92;;
66669;SDS011;53568;52.164;4.472;2023-04-25T08:09:34;4.96;;;3.29;;
66669;SDS011;53568;52.164;4.472;2023-04-25T08:12:02;3.98;;;2.67;;
66669;SDS011;53568;52.164;4.472;2023-04-25T08:14:28;3.52;;;2.35;;
66669;SDS011;53568;52.164;4.472;2023-04-25T08:17:00;3.35;;;2.25;;
66669;SDS011;53568;52.164;4.472;2023-04-25T08:19:28;3.51;;;2.36;;
66669;SDS011;53568;52.164;4.472;2023-04-25T08:21:55;3.37;;;2.28;;
66669;SDS011;53568;52.164;4.472;2023-04-25T08:24:21;3.51;;;2.38;;
66669;SDS011;53568;52.164;4.472;2023-04-25T08:26:47;3.11;;;2.17;;
66669;SDS011;53568;52.164;4.472;2023-04-25T08:29:13;2.57;;;1.78;;
66669;SDS011;53568;52.164;4.472;2023-04-25T08:31:39;2.91;;;2.02;;
66669;SDS011;53568;52.164;4.472;2023-04-25T08:34:04;3.12;;;2.19;;
66669;SDS011;53568;52.164;4.472;2023-04-25T08:36:30;3.04;;;2.18;;
66669;SDS011;53568;52.164;4.472;2023-04-25T08:38:56;2.77;;;1.97;;
66669;SDS011;53568;52.164;4.472;2023-04-25T08:41:23;2.84;;;2.02;;
66669;SDS011;53568;52.164;4.472;2023-04-25T08:43:50;3.26;;;2.28;;
66669;SDS011;53568;52.164;4.472;2023-04-25T08:46:19;3.25;;;2.23;;
66669;SDS011;53568;52.164;4.472;2023-04-25T08:48:45;4.01;;;2.75;;
66669;SDS011;53568;52.164;4.472;2023-04-25T08:51:21;3.54;;;2.45;;
66669;SDS011;53568;52.164;4.472;2023-04-25T08:53:51;2.68;;;1.85;;
66669;SDS011;53568;52.164;4.472;2023-04-25T08:56:17;3.14;;;2.18;;
66669;SDS011;53568;52.164;4.472;2023-04-25T08:58:47;3.39;;;2.35;;
66669;SDS011;53568;52.164;4.472;2023-04-25T09:01:15;3.27;;;2.27;;
66669;SDS011;53568;52.164;4.472;2023-04-25T09:03:40;3.50;;;2.43;;
66669;SDS011;53568;52.164;4.472;2023-04-25T09:06:07;3.84;;;2.62;;
66669;SDS011;53568;52.164;4.472;2023-04-25T09:08:36;4.24;;;2.79;;
66669;SDS011;53568;52.164;4.472;2023-04-25T09:11:02;4.96;;;3.18;;
66669;SDS011;53568;52.164;4.472;2023-04-25T09:13:28;5.92;;;3.79;;
66669;SDS011;53568;52.164;4.472;2023-04-25T09:15:55;5.29;;;3.46;;
66669;SDS011;53568;52.164;4.472;2023-04-25T09:18:22;4.35;;;2.91;;
66669;SDS011;53568;52.164;4.472;2023-04-25T09:20:51;3.77;;;2.54;;
66669;SDS011;53568;52.164;4.472;2023-04-25T09:23:18;3.60;;;2.41;;
66669;SDS011;53568;52.164;4.472;2023-04-25T09:25:50;3.90;;;2.62;;
66669;SDS011;53568;52.164;4.472;2023-04-25T09:28:22;3.22;;;2.20;;
66669;SDS011;53568;52.164;4.472;2023-04-25T09:30:53;3.32;;;2.27;;
66669;SDS011;53568;52.164;4.472;2023-04-25T09:33:26;3.63;;;2.49;;
66669;SDS011;53568;52.164;4.472;2023-04-25T09:35:56;3.69;;;2.54;;
66669;SDS011;53568;52.164;4.472;2023-04-25T09:38:29;4.04;;;2.78;;
66669;SDS011;53568;52.164;4.472;2023-04-25T09:40:57;4.24;;;2.84;;
66669;SDS011;53568;52.164;4.472;2023-04-25T09:43:23;4.61;;;3.04;;
66669;SDS011;53568;52.164;4.472;2023-04-25T09:45:50;4.09;;;2.72;;
66669;SDS011;53568;52.164;4.472;2023-04-25T09:48:19;4.80;;;3.21;;
66669;SDS011;53568;52.164;4.472;2023-04-25T09:53:36;4.34;;;2.98;;
66669;SDS011;53568;52.164;4.472;2023-04-25T09:56:03;4.11;;;2.76;;
66669;SDS011;53568;52.164;4.472;2023-04-25T09:58:32;4.62;;;3.04;;
66669;SDS011;53568;52.164;4.472;2023-04-25T10:00:59;4.35;;;2.85;;
66669;SDS011;53568;52.164;4.472;2023-04-25T10:03:29;3.40;;;2.25;;
66669;SDS011;53568;52.164;4.472;2023-04-25T10:05:56;3.38;;;2.24;;
66669;SDS011;53568;52.164;4.472;2023-04-25T10:08:25;3.70;;;2.46;;
66669;SDS011;53568;52.164;4.472;2023-04-25T10:10:57;3.97;;;2.63;;
66669;SDS011;53568;52.164;4.472;2023-04-25T10:13:26;4.23;;;2.81;;
66669;SDS011;53568;52.164;4.472;2023-04-25T10:15:53;4.34;;;2.91;;
66669;SDS011;53568;52.164;4.472;2023-04-25T10:18:21;3.91;;;2.66;;
66669;SDS011;53568;52.164;4.472;2023-04-25T10:20:47;4.01;;;2.73;;
66669;SDS011;53568;52.164;4.472;2023-04-25T10:23:13;3.95;;;2.68;;
66669;SDS011;53568;52.164;4.472;2023-04-25T10:25:40;4.06;;;2.74;;
66669;SDS011;53568;52.164;4.472;2023-04-25T10:28:07;3.34;;;2.25;;
66669;SDS011;53568;52.164;4.472;2023-04-25T10:30:32;3.68;;;2.51;;
66669;SDS011;53568;52.164;4.472;2023-04-25T10:32:58;3.50;;;2.42;;
66669;SDS011;53568;52.164;4.472;2023-04-25T10:35:28;4.25;;;2.88;;
66669;SDS011;53568;52.164;4.472;2023-04-25T10:38:10;4.05;;;2.75;;
66669;SDS011;53568;52.164;4.472;2023-04-25T10:40:38;4.17;;;2.83;;
66669;SDS011;53568;52.164;4.472;2023-04-25T10:48:50;3.87;;;2.69;;
66669;SDS011;53568;52.164;4.472;2023-04-25T10:51:24;4.23;;;2.83;;
66669;SDS011;53568;52.164;4.472;2023-04-25T10:56:20;4.07;;;2.72;;
66669;SDS011;53568;52.164;4.472;2023-04-25T11:01:53;4.41;;;2.97;;
66669;SDS011;53568;52.164;4.472;2023-04-25T11:04:31;4.45;;;3.01;;
66669;SDS011;53568;52.164;4.472;2023-04-25T11:07:10;4.35;;;3.01;;
66669;SDS011;53568;52.164;4.472;2023-04-25T11:09:48;4.88;;;3.36;;
66669;SDS011;53568;52.164;4.472;2023-04-25T11:12:15;4.75;;;3.19;;
66669;SDS011;53568;52.164;4.472;2023-04-25T11:14:42;5.02;;;3.37;;
66669;SDS011;53568;52.164;4.472;2023-04-25T11:17:07;4.97;;;3.25;;
66669;SDS011;53568;52.164;4.472;2023-04-25T11:19:33;4.57;;;3.08;;
66669;SDS011;53568;52.164;4.472;2023-04-25T11:21:59;3.68;;;2.55;;
66669;SDS011;53568;52.164;4.472;2023-04-25T11:24:30;3.62;;;2.57;;
66669;SDS011;53568;52.164;4.472;2023-04-25T11:27:00;3.93;;;2.70;;
66669;SDS011;53568;52.164;4.472;2023-04-25T11:29:31;4.27;;;2.87;;
66669;SDS011;53568;52.164;4.472;2023-04-25T11:31:58;3.93;;;2.63;;
66669;SDS011;53568;52.164;4.472;2023-04-25T11:34:26;4.40;;;2.95;;
66669;SDS011;53568;52.164;4.472;2023-04-25T11:36:52;3.79;;;2.56;;
66669;SDS011;53568;52.164;4.472;2023-04-25T11:39:18;3.85;;;2.65;;
66669;SDS011;53568;52.164;4.472;2023-04-25T11:41:45;3.64;;;2.50;;
66669;SDS011;53568;52.164;4.472;2023-04-25T11:44:11;3.32;;;2.32;;
66669;SDS011;53568;52.164;4.472;2023-04-25T11:46:40;3.31;;;2.32;;
66669;SDS011;53568;52.164;4.472;2023-04-25T11:49:05;3.30;;;2.31;;
66669;SDS011;53568;52.164;4.472;2023-04-25T11:51:37;3.09;;;2.14;;
66669;SDS011;53568;52.164;4.472;2023-04-25T11:54:06;3.36;;;2.30;;
66669;SDS011;53568;52.164;4.472;2023-04-25T11:56:32;3.04;;;2.09;;
66669;SDS011;53568;52.164;4.472;2023-04-25T11:58:59;3.89;;;2.64;;
66669;SDS011;53568;52.164;4.472;2023-04-25T12:01:33;3.82;;;2.64;;
66669;SDS011;53568;52.164;4.472;2023-04-25T12:04:10;3.94;;;2.76;;
66669;SDS011;53568;52.164;4.472;2023-04-25T12:06:47;3.53;;;2.45;;
66669;SDS011;53568;52.164;4.472;2023-04-25T12:09:18;4.32;;;2.96;;
66669;SDS011;53568;52.164;4.472;2023-04-25T12:11:47;4.25;;;2.89;;
66669;SDS011;53568;52.164;4.472;2023-04-25T12:14:25;3.80;;;2.60;;
66669;SDS011;53568;52.164;4.472;2023-04-25T12:16:53;4.18;;;2.91;;
66669;SDS011;53568;52.164;4.472;2023-04-25T12:19:22;4.51;;;3.13;;
66669;SDS011;53568;52.164;4.472;2023-04-25T12:21:49;4.50;;;3.10;;
66669;SDS011;53568;52.164;4.472;2023-04-25T12:24:16;4.31;;;3.02;;
66669;SDS011;53568;52.164;4.472;2023-04-25T12:26:51;3.67;;;2.60;;
66669;SDS011;53568;52.164;4.472;2023-04-25T12:29:18;3.31;;;2.34;;
66669;SDS011;53568;52.164;4.472;2023-04-25T12:31:45;3.64;;;2.55;;
66669;SDS011;53568;52.164;4.472;2023-04-25T12:34:11;3.74;;;2.65;;
66669;SDS011;53568;52.164;4.472;2023-04-25T12:36:37;3.67;;;2.55;;
66669;SDS011;53568;52.164;4.472;2023-04-25T12:39:03;3.80;;;2.65;;
66669;SDS011;53568;52.164;4.472;2023-04-25T12:41:29;3.52;;;2.50;;
66669;SDS011;53568;52.164;4.472;2023-04-25T12:43:55;3.44;;;2.48;;
66669;SDS011;53568;52.164;4.472;2023-04-25T12:46:21;3.58;;;2.60;;
66669;SDS011;53568;52.164;4.472;2023-04-25T12:48:48;3.48;;;2.57;;
66669;SDS011;53568;52.164;4.472;2023-04-25T12:51:13;3.57;;;2.60;;
66669;SDS011;53568;52.164;4.472;2023-04-25T12:53:40;3.81;;;2.73;;
66669;SDS011;53568;52.164;4.472;2023-04-25T12:56:06;4.21;;;2.99;;
66669;SDS011;53568;52.164;4.472;2023-04-25T12:58:35;4.00;;;2.84;;
66669;SDS011;53568;52.164;4.472;2023-04-25T13:01:01;4.30;;;3.03;;
66669;SDS011;53568;52.164;4.472;2023-04-25T13:03:26;4.58;;;3.25;;
66669;SDS011;53568;52.164;4.472;2023-04-25T13:05:52;4.47;;;3.27;;
66669;SDS011;53568;52.164;4.472;2023-04-25T13:08:20;3.82;;;2.87;;
66669;SDS011;53568;52.164;4.472;2023-04-25T13:10:49;3.69;;;2.77;;
66669;SDS011;53568;52.164;4.472;2023-04-25T13:13:14;3.23;;;2.50;;
66669;SDS011;53568;52.164;4.472;2023-04-25T13:15:41;3.37;;;2.57;;
66669;SDS011;53568;52.164;4.472;2023-04-25T13:18:07;3.54;;;2.64;;
66669;SDS011;53568;52.164;4.472;2023-04-25T13:20:32;3.51;;;2.62;;
66669;SDS011;53568;52.164;4.472;2023-04-25T13:22:58;3.70;;;2.69;;
66669;SDS011;53568;52.164;4.472;2023-04-25T13:25:23;3.85;;;2.70;;
66669;SDS011;53568;52.164;4.472;2023-04-25T13:27:50;3.78;;;2.69;;
66669;SDS011;53568;52.164;4.472;2023-04-25T13:30:15;3.47;;;2.48;;
66669;SDS011;53568;52.164;4.472;2023-04-25T13:32:41;4.00;;;2.86;;
66669;SDS011;53568;52.164;4.472;2023-04-25T13:35:08;3.96;;;2.82;;
66669;SDS011;53568;52.164;4.472;2023-04-25T13:37:39;3.58;;;2.60;;
66669;SDS011;53568;52.164;4.472;2023-04-25T13:40:06;3.01;;;2.24;;
66669;SDS011;53568;52.164;4.472;2023-04-25T13:42:35;3.15;;;2.37;;
66669;SDS011;53568;52.164;4.472;2023-04-25T13:45:01;3.14;;;2.39;;
66669;SDS011;53568;52.164;4.472;2023-04-25T13:47:28;3.00;;;2.28;;
66669;SDS011;53568;52.164;4.472;2023-04-25T13:49:55;3.51;;;2.60;;
66669;SDS011;53568;52.164;4.472;2023-04-25T13:52:20;3.67;;;2.67;;
66669;SDS011;53568;52.164;4.472;2023-04-25T13:54:46;3.45;;;2.56;;
66669;SDS011;53568;52.164;4.472;2023-04-25T13:57:12;3.50;;;2.64;;
66669;SDS011;53568;52.164;4.472;2023-04-25T13:59:38;3.75;;;2.81;;
66669;SDS011;53568;52.164;4.472;2023-04-25T14:02:05;3.61;;;2.78;;
66669;SDS011;53568;52.164;4.472;2023-04-25T14:04:31;3.43;;;2.70;;
66669;SDS011;53568;52.164;4.472;2023-04-25T14:06:57;3.35;;;2.64;;
66669;SDS011;53568;52.164;4.472;2023-04-25T14:09:23;3.48;;;2.71;;
66669;SDS011;53568;52.164;4.472;2023-04-25T14:11:53;3.13;;;2.43;;
66669;SDS011;53568;52.164;4.472;2023-04-25T14:14:21;3.34;;;2.65;;
66669;SDS011;53568;52.164;4.472;2023-04-25T14:16:47;3.26;;;2.63;;
66669;SDS011;53568;52.164;4.472;2023-04-25T14:19:14;2.99;;;2.38;;
66669;SDS011;53568;52.164;4.472;2023-04-25T14:21:40;3.26;;;2.56;;
66669;SDS011;53568;52.164;4.472;2023-04-25T14:24:06;3.17;;;2.53;;
66669;SDS011;53568;52.164;4.472;2023-04-25T14:26:34;3.29;;;2.59;;
66669;SDS011;53568;52.164;4.472;2023-04-25T14:29:01;3.72;;;2.87;;
66669;SDS011;53568;52.164;4.472;2023-04-25T14:31:26;4.19;;;3.20;;
66669;SDS011;53568;52.164;4.472;2023-04-25T14:33:52;3.58;;;2.71;;
66669;SDS011;53568;52.164;4.472;2023-04-25T14:36:18;3.72;;;2.85;;
66669;SDS011;53568;52.164;4.472;2023-04-25T14:38:44;3.95;;;3.05;;
66669;SDS011;53568;52.164;4.472;2023-04-25T14:41:09;3.73;;;2.91;;
66669;SDS011;53568;52.164;4.472;2023-04-25T14:43:35;3.48;;;2.82;;
66669;SDS011;53568;52.164;4.472;2023-04-25T14:46:02;3.69;;;2.99;;
66669;SDS011;53568;52.164;4.472;2023-04-25T14:48:28;3.35;;;2.68;;
66669;SDS011;53568;52.164;4.472;2023-04-25T14:50:54;3.31;;;2.76;;
66669;SDS011;53568;52.164;4.472;2023-04-25T14:53:21;3.09;;;2.61;;
66669;SDS011;53568;52.164;4.472;2023-04-25T14:55:48;3.21;;;2.71;;
66669;SDS011;53568;52.164;4.472;2023-04-25T14:58:14;3.39;;;2.81;;